createdAt,value
2023-01-06T00:02:05.991Z,4.32
2023-01-06T00:07:07.828Z,4.22
2023-01-06T00:12:12.168Z,4.02
2023-01-06T00:17:14.282Z,3.83
2023-01-06T00:22:16.174Z,3.69
2023-01-06T00:27:17.879Z,3.55
2023-01-06T00:32:21.880Z,3.44
2023-01-06T00:37:23.607Z,3.35
2023-01-06T00:42:26.629Z,3.29
2023-01-06T00:47:28.290Z,3.20
2023-01-06T00:52:30.179Z,3.10
2023-01-06T00:57:33.295Z,3.07
2023-01-06T01:02:35.476Z,3.04
2023-01-06T01:07:37.448Z,2.94
2023-01-06T01:12:39.177Z,2.79
2023-01-06T01:17:41.204Z,2.62
2023-01-06T01:22:42.930Z,2.49
2023-01-06T01:27:44.641Z,2.39
2023-01-06T01:32:47.381Z,2.27
2023-01-06T01:37:49.139Z,2.12
2023-01-06T01:42:50.868Z,1.97
2023-01-06T01:48:01.167Z,1.84
2023-01-06T01:53:15.891Z,1.79
2023-01-06T01:58:31.170Z,1.88
2023-01-06T02:03:33.099Z,2.03
2023-01-06T02:08:41.804Z,2.13
2023-01-06T02:13:47.651Z,2.22
2023-01-06T02:18:56.126Z,2.35
2023-01-06T02:24:21.168Z,2.46
2023-01-06T02:30:10.886Z,2.50
2023-01-06T02:35:35.364Z,2.39
2023-01-06T02:40:40.454Z,2.16
2023-01-06T02:46:01.830Z,1.88
2023-01-06T02:51:16.815Z,1.62
2023-01-06T02:56:25.518Z,1.45
2023-01-06T03:01:41.850Z,1.35
2023-01-06T03:06:47.172Z,1.27
2023-01-06T03:11:51.802Z,1.12
2023-01-06T03:16:54.848Z,0.95
2023-01-06T03:21:59.057Z,0.74
2023-01-06T03:27:01.135Z,0.55
2023-01-06T03:32:27.732Z,0.47
2023-01-06T03:37:40.506Z,0.47
2023-01-06T03:43:13.668Z,0.52
2023-01-06T03:48:22.692Z,0.65
2023-01-06T03:53:36.909Z,0.76
2023-01-06T03:58:40.810Z,0.86
2023-01-06T04:03:44.896Z,1.02
2023-01-06T04:08:47.770Z,1.19
2023-01-06T04:13:49.752Z,1.37
2023-01-06T04:18:51.570Z,1.48
2023-01-06T04:23:53.400Z,1.55
2023-01-06T04:28:55.632Z,1.59
2023-01-06T04:33:57.498Z,1.64
2023-01-06T04:38:59.649Z,1.73
2023-01-06T04:44:01.616Z,1.83
2023-01-06T04:49:03.548Z,1.92
2023-01-06T04:54:06.257Z,1.97
2023-01-06T04:59:07.997Z,1.97
2023-01-06T05:04:09.900Z,1.95
2023-01-06T05:09:11.754Z,1.92
2023-01-06T05:14:13.564Z,1.94
2023-01-06T05:19:15.310Z,2.02
2023-01-06T05:24:17.021Z,2.13
2023-01-06T05:29:18.812Z,2.23
2023-01-06T05:34:20.494Z,2.27
2023-01-06T05:39:22.422Z,2.24
2023-01-06T05:44:24.144Z,2.08
2023-01-06T05:49:26.003Z,2.15
2023-01-06T05:54:27.655Z,2.20
2023-01-06T05:59:29.365Z,2.22
2023-01-06T06:04:31.072Z,2.24
2023-01-06T06:09:32.792Z,2.24
2023-01-06T06:14:34.500Z,2.21
2023-01-06T06:19:36.204Z,2.16
2023-01-06T06:24:38.133Z,2.15
2023-01-06T06:29:39.791Z,2.20
2023-01-06T06:34:41.763Z,2.31
2023-01-06T06:39:43.453Z,2.26
2023-01-06T06:44:45.142Z,2.49
2023-01-06T06:49:46.875Z,2.52
2023-01-06T06:54:48.547Z,2.52
2023-01-06T06:59:50.233Z,2.53
2023-01-06T07:04:51.898Z,2.61
2023-01-06T07:09:53.578Z,2.79
2023-01-06T07:14:55.267Z,2.94
2023-01-06T07:19:56.933Z,2.96
2023-01-06T07:24:58.639Z,2.95
2023-01-06T07:30:00.528Z,2.92
2023-01-06T07:35:02.225Z,2.92
2023-01-06T07:40:04.571Z,2.95
2023-01-06T07:45:10.003Z,3.08
2023-01-06T07:50:11.721Z,3.24
2023-01-06T07:55:13.474Z,3.34
2023-01-06T08:00:15.641Z,3.37
2023-01-06T08:05:17.392Z,3.46
2023-01-06T08:10:19.098Z,3.54
2023-01-06T08:15:20.859Z,3.69
2023-01-06T08:20:23.088Z,3.85
2023-01-06T08:25:24.986Z,3.99
2023-01-06T08:30:27.202Z,4.18
2023-01-06T08:35:28.884Z,4.37
2023-01-06T08:40:30.638Z,4.54
2023-01-06T08:45:32.374Z,4.63
2023-01-06T08:50:34.054Z,4.66
2023-01-06T08:55:39.648Z,4.68
2023-01-06T09:00:43.300Z,4.67
2023-01-06T09:05:52.491Z,4.62
2023-01-06T09:10:54.204Z,4.57
2023-01-06T09:15:55.936Z,4.65
2023-01-06T09:20:57.645Z,4.79
2023-01-06T09:25:59.525Z,4.95
2023-01-06T09:31:01.646Z,5.02
2023-01-06T09:36:03.802Z,5.10
2023-01-06T09:41:17.491Z,5.22
2023-01-06T09:46:23.950Z,5.37
2023-01-06T09:51:27.863Z,5.47
2023-01-06T09:56:30.672Z,5.61
2023-01-06T10:01:38.694Z,5.74
2023-01-06T10:06:56.043Z,5.94
2023-01-06T10:12:52.540Z,6.18
2023-01-06T10:18:21.558Z,6.35
2023-01-06T10:23:40.095Z,6.46
2023-01-06T10:28:44.825Z,6.51
2023-01-06T10:33:52.358Z,6.45
2023-01-06T10:38:55.247Z,6.34
2023-01-06T10:43:57.798Z,6.24
2023-01-06T10:49:01.107Z,6.18
2023-01-06T10:54:08.757Z,6.17
2023-01-06T10:59:12.029Z,6.14
2023-01-06T11:04:15.398Z,6.14
2023-01-06T11:09:39.469Z,6.21
2023-01-06T11:14:41.800Z,6.41
2023-01-06T11:19:45.697Z,6.61
2023-01-06T11:24:53.200Z,6.70
2023-01-06T11:29:55.273Z,6.71
2023-01-06T11:35:03.555Z,6.74
2023-01-06T11:40:33.626Z,6.72
2023-01-06T11:45:37.445Z,6.66
2023-01-06T11:50:39.248Z,6.61
2023-01-06T11:55:41.381Z,6.67
2023-01-06T12:00:52.833Z,6.82
2023-01-06T12:06:05.891Z,6.98
2023-01-06T12:11:16.722Z,7.12
2023-01-06T12:16:32.758Z,7.23
2023-01-06T12:21:36.630Z,7.25
2023-01-06T12:26:39.990Z,7.17
2023-01-06T12:31:55.326Z,7.11
2023-01-06T12:37:01.834Z,7.19
2023-01-06T12:42:15.595Z,7.29
2023-01-06T12:47:23.370Z,7.42
2023-01-06T12:52:48.083Z,7.51
2023-01-06T12:58:38.916Z,7.66
2023-01-06T13:04:06.039Z,7.82
2023-01-06T13:09:23.139Z,7.87
2023-01-06T13:14:52.955Z,7.85
2023-01-06T13:19:57.880Z,7.79
2023-01-06T13:25:25.258Z,7.69
2023-01-06T13:30:41.806Z,7.62
2023-01-06T13:35:49.515Z,7.58
2023-01-06T13:40:53.377Z,7.58
2023-01-06T13:46:01.905Z,7.62
2023-01-06T13:51:07.385Z,7.62
2023-01-06T13:56:12.216Z,7.59
2023-01-06T14:01:20.203Z,7.48
2023-01-06T14:06:22.035Z,7.36
2023-01-06T14:11:30.805Z,7.24
2023-01-06T14:16:44.555Z,7.16
2023-01-06T14:21:49.365Z,7.11
2023-01-06T14:26:58.250Z,7.13
2023-01-06T14:31:59.897Z,7.13
2023-01-06T14:37:03.409Z,7.09
2023-01-06T14:42:31.038Z,7.02
2023-01-06T14:47:46.021Z,6.92
2023-01-06T14:52:57.556Z,6.81
2023-01-06T14:57:59.318Z,6.70
2023-01-06T15:03:03.937Z,6.65
2023-01-06T15:08:15.072Z,6.59
2023-01-06T15:13:31.796Z,6.53
2023-01-06T15:18:42.815Z,6.53
2023-01-06T15:23:50.972Z,6.54
2023-01-06T15:29:00.113Z,6.57
2023-01-06T15:34:08.049Z,6.57
2023-01-06T15:39:14.874Z,6.56
2023-01-06T15:44:25.670Z,6.60
2023-01-06T15:49:36.728Z,6.62
2023-01-06T15:54:43.899Z,6.62
2023-01-06T16:00:04.471Z,6.61
2023-01-06T16:05:07.254Z,6.58
2023-01-06T16:10:59.625Z,6.59
2023-01-06T16:16:16.070Z,6.63
2023-01-06T16:21:24.749Z,6.64
2023-01-06T16:26:33.407Z,6.61
2023-01-06T16:31:38.996Z,6.55
2023-01-06T16:36:40.907Z,6.53
2023-01-06T16:42:47.601Z,6.58
2023-01-06T16:47:50.409Z,6.65
2023-01-06T16:53:02.428Z,6.66
2023-01-06T16:58:18.011Z,6.69
2023-01-06T17:03:26.214Z,6.70
2023-01-06T17:08:30.304Z,6.73
2023-01-06T17:13:46.216Z,6.76
2023-01-06T17:18:56.527Z,6.79
2023-01-06T17:24:19.697Z,6.82
2023-01-06T17:29:21.565Z,6.83
2023-01-06T17:34:31.877Z,6.80
2023-01-06T17:39:37.924Z,6.79
2023-01-06T17:44:51.635Z,6.75
2023-01-06T17:49:55.831Z,6.73
2023-01-06T17:55:18.429Z,6.70
2023-01-06T18:00:33.207Z,6.68
2023-01-06T18:05:34.986Z,6.68
2023-01-06T18:10:41.823Z,6.69
2023-01-06T18:15:50.303Z,6.68
2023-01-06T18:20:59.928Z,6.72
2023-01-06T18:26:30.323Z,6.77
2023-01-06T18:31:35.765Z,6.80
2023-01-06T18:36:37.730Z,6.81
2023-01-06T18:41:39.549Z,6.69
2023-01-06T18:46:42.199Z,6.91
2023-01-06T18:51:43.856Z,6.96
2023-01-06T18:56:45.997Z,6.96
2023-01-06T19:01:54.977Z,6.98
2023-01-06T19:07:03.341Z,7.01
2023-01-06T19:12:07.809Z,7.03
2023-01-06T19:17:15.790Z,7.03
2023-01-06T19:22:36.135Z,7.04
2023-01-06T19:27:49.681Z,7.07
2023-01-06T19:32:51.351Z,7.07
2023-01-06T19:38:09.697Z,7.05
2023-01-06T19:43:15.947Z,7.04
2023-01-06T19:48:25.226Z,7.07
2023-01-06T19:53:44.001Z,7.06
2023-01-06T19:59:27.249Z,7.05
2023-01-06T20:04:29.095Z,7.06
2023-01-06T20:09:33.420Z,7.07
2023-01-06T20:14:36.437Z,7.06
2023-01-06T20:19:38.142Z,7.04
2023-01-06T20:24:40.093Z,7.03
2023-01-06T20:29:41.913Z,7.04
2023-01-06T20:34:43.634Z,7.06
2023-01-06T20:39:47.740Z,7.06
2023-01-06T20:44:49.368Z,7.06
2023-01-06T20:49:52.263Z,7.08
2023-01-06T20:54:54.345Z,7.09
2023-01-06T20:59:55.999Z,7.12
2023-01-06T21:04:57.664Z,7.13
2023-01-06T21:10:00.369Z,7.16
2023-01-06T21:15:02.599Z,7.20
2023-01-06T21:20:06.277Z,7.21
2023-01-06T21:25:08.996Z,7.19
2023-01-06T21:30:11.634Z,7.19
2023-01-06T21:35:14.101Z,7.22
2023-01-06T21:40:15.916Z,7.21
2023-01-06T21:45:17.721Z,7.16
2023-01-06T21:50:19.640Z,7.11
2023-01-06T21:55:22.047Z,7.11
2023-01-06T22:00:23.748Z,7.14
2023-01-06T22:05:25.451Z,7.12
2023-01-06T22:10:27.461Z,7.12
2023-01-06T22:15:30.048Z,7.15
2023-01-06T22:20:32.232Z,7.10
2023-01-06T22:25:33.972Z,7.04
2023-01-06T22:30:36.181Z,7.02
2023-01-06T22:35:38.359Z,7.01
2023-01-06T22:40:40.092Z,6.97
2023-01-06T22:45:41.809Z,6.94
2023-01-06T22:50:43.533Z,6.90
2023-01-06T22:55:45.176Z,6.88
2023-01-06T23:00:46.831Z,6.83
2023-01-06T23:05:55.702Z,6.76
2023-01-06T23:11:02.987Z,6.71
2023-01-06T23:16:06.705Z,6.66
2023-01-06T23:21:18.820Z,6.63
2023-01-06T23:26:28.175Z,6.58
2023-01-06T23:31:32.773Z,6.51
2023-01-06T23:36:36.691Z,6.42
2023-01-06T23:41:41.372Z,6.36
2023-01-06T23:46:44.136Z,6.28
2023-01-06T23:51:46.412Z,6.22
2023-01-06T23:56:48.080Z,6.20
